createdAt,value
2018-09-27T00:02:26.838Z,14.64
2018-09-27T00:04:55.365Z,15.04
2018-09-27T00:07:23.948Z,15.02
2018-09-27T00:09:52.437Z,14.99
2018-09-27T00:12:21.005Z,14.99
2018-09-27T00:14:49.558Z,14.97
2018-09-27T00:17:18.165Z,14.96
2018-09-27T00:19:46.736Z,14.94
2018-09-27T00:22:15.356Z,14.90
2018-09-27T00:24:43.977Z,14.87
2018-09-27T00:27:12.551Z,14.85
2018-09-27T00:29:41.104Z,14.80
2018-09-27T00:32:09.772Z,14.74
2018-09-27T00:34:38.507Z,14.71
2018-09-27T00:37:07.055Z,14.68
2018-09-27T00:39:35.581Z,14.63
2018-09-27T00:42:04.179Z,14.55
2018-09-27T00:44:32.707Z,14.50
2018-09-27T00:47:01.332Z,14.49
2018-09-27T00:49:29.956Z,14.48
2018-09-27T00:51:58.591Z,14.49
2018-09-27T00:54:27.056Z,14.49
2018-09-27T00:56:55.623Z,14.48
2018-09-27T00:59:24.213Z,14.47
2018-09-27T01:01:52.769Z,14.48
2018-09-27T01:04:21.293Z,14.48
2018-09-27T01:06:49.843Z,14.48
2018-09-27T01:09:18.354Z,14.49
2018-09-27T01:11:46.935Z,14.49
2018-09-27T01:14:15.552Z,14.48
2018-09-27T01:16:44.196Z,14.46
2018-09-27T01:19:12.853Z,14.45
2018-09-27T01:21:41.544Z,14.42
2018-09-27T01:24:10.079Z,14.38
2018-09-27T01:26:38.600Z,14.36
2018-09-27T01:29:07.093Z,14.34
2018-09-27T01:31:35.694Z,14.32
2018-09-27T01:34:04.322Z,14.29
2018-09-27T01:36:32.973Z,14.29
2018-09-27T01:39:01.577Z,14.30
2018-09-27T01:41:30.099Z,14.30
2018-09-27T01:43:58.627Z,14.30
2018-09-27T01:46:27.206Z,14.29
2018-09-27T01:48:55.852Z,14.29
2018-09-27T01:51:24.422Z,14.11
2018-09-27T01:53:52.883Z,14.26
2018-09-27T01:56:21.432Z,14.21
2018-09-27T01:58:49.965Z,14.17
2018-09-27T02:01:18.455Z,14.15
2018-09-27T02:03:46.936Z,14.14
2018-09-27T02:06:15.378Z,14.15
2018-09-27T02:08:43.876Z,14.14
2018-09-27T02:11:12.584Z,14.11
2018-09-27T02:13:41.239Z,14.09
2018-09-27T02:16:09.832Z,14.05
2018-09-27T02:18:38.381Z,14.04
2018-09-27T02:21:07.043Z,14.03
2018-09-27T02:23:36.082Z,14.01
2018-09-27T02:26:04.736Z,13.99
2018-09-27T02:28:33.384Z,13.98
2018-09-27T02:31:01.970Z,13.98
2018-09-27T02:33:30.577Z,13.96
2018-09-27T02:35:59.160Z,13.91
2018-09-27T02:38:27.924Z,13.89
2018-09-27T02:40:56.464Z,13.88
2018-09-27T02:43:24.985Z,13.87
2018-09-27T02:45:53.486Z,13.86
2018-09-27T02:48:22.008Z,13.86
2018-09-27T02:50:50.598Z,13.85
2018-09-27T02:53:19.152Z,13.81
2018-09-27T02:55:47.608Z,13.79
2018-09-27T02:58:16.130Z,13.79
2018-09-27T03:00:44.701Z,13.78
2018-09-27T03:03:13.349Z,13.75
2018-09-27T03:05:41.877Z,13.73
2018-09-27T03:08:10.447Z,13.71
2018-09-27T03:10:38.936Z,13.69
2018-09-27T03:13:07.403Z,13.66
2018-09-27T03:15:35.879Z,13.63
2018-09-27T03:18:04.390Z,13.61
2018-09-27T03:20:32.950Z,13.59
2018-09-27T03:23:01.482Z,13.58
2018-09-27T03:25:30.058Z,13.60
2018-09-27T03:27:58.693Z,13.57
2018-09-27T03:30:27.169Z,13.57
2018-09-27T03:35:29.504Z,13.57
2018-09-27T03:37:58.149Z,13.58
2018-09-27T03:40:26.802Z,13.57
2018-09-27T03:42:55.300Z,13.56
2018-09-27T03:45:23.820Z,13.56
2018-09-27T03:47:52.325Z,13.53
2018-09-27T03:50:20.823Z,13.51
2018-09-27T03:52:49.318Z,13.49
2018-09-27T03:55:17.832Z,13.45
2018-09-27T03:57:46.333Z,13.44
2018-09-27T04:00:14.812Z,13.42
2018-09-27T04:02:43.417Z,13.43
2018-09-27T04:05:11.941Z,13.42
2018-09-27T04:07:40.532Z,13.43
2018-09-27T04:10:09.107Z,13.42
2018-09-27T04:12:38.071Z,13.41
2018-09-27T04:15:06.624Z,13.39
2018-09-27T04:17:35.186Z,13.37
2018-09-27T04:20:03.689Z,13.36
2018-09-27T04:22:32.222Z,13.36
2018-09-27T04:25:00.768Z,13.35
2018-09-27T04:27:29.297Z,13.20
2018-09-27T04:29:57.795Z,13.33
2018-09-27T04:32:26.378Z,13.34
2018-09-27T04:34:55.078Z,13.31
2018-09-27T04:37:23.722Z,13.31
2018-09-27T04:39:52.342Z,13.31
2018-09-27T04:42:20.964Z,13.28
2018-09-27T04:44:49.483Z,13.28
2018-09-27T04:47:18.471Z,13.28
2018-09-27T04:49:47.056Z,13.27
2018-09-27T04:52:15.693Z,13.25
2018-09-27T04:54:44.481Z,13.26
2018-09-27T04:57:13.141Z,13.25
2018-09-27T04:59:42.238Z,13.26
2018-09-27T05:02:11.059Z,13.25
2018-09-27T05:04:39.712Z,13.24
2018-09-27T05:07:08.424Z,13.21
2018-09-27T05:09:37.239Z,13.22
2018-09-27T05:12:05.931Z,13.20
2018-09-27T05:14:34.610Z,13.19
2018-09-27T05:17:03.286Z,13.19
2018-09-27T05:19:31.955Z,13.17
2018-09-27T05:22:00.603Z,13.18
2018-09-27T05:24:29.273Z,13.15
2018-09-27T05:26:57.951Z,13.15
2018-09-27T05:29:26.594Z,13.14
2018-09-27T05:31:55.382Z,13.15
2018-09-27T05:34:24.185Z,13.14
2018-09-27T05:36:53.384Z,13.14
2018-09-27T05:39:22.194Z,13.16
2018-09-27T05:41:53.241Z,13.17
2018-09-27T05:44:22.103Z,13.19
2018-09-27T05:46:50.954Z,13.17
2018-09-27T05:49:19.717Z,13.20
2018-09-27T05:51:48.452Z,13.22
2018-09-27T05:54:17.222Z,13.24
2018-09-27T05:56:45.893Z,13.20
2018-09-27T05:59:14.883Z,13.24
2018-09-27T06:01:43.634Z,13.25
2018-09-27T06:04:12.483Z,13.31
2018-09-27T06:06:41.217Z,13.33
2018-09-27T06:09:11.935Z,13.34
2018-09-27T06:11:49.102Z,13.35
2018-09-27T06:14:17.896Z,13.38
2018-09-27T06:16:46.890Z,13.43
2018-09-27T06:19:15.712Z,13.54
2018-09-27T06:21:44.500Z,13.72
2018-09-27T06:24:13.217Z,14.03
2018-09-27T06:26:42.571Z,14.45
2018-09-27T06:29:11.183Z,14.92
2018-09-27T06:31:39.898Z,15.48
2018-09-27T06:34:08.609Z,15.98
2018-09-27T06:36:37.245Z,16.48
2018-09-27T06:39:08.160Z,16.98
2018-09-27T06:41:36.770Z,17.54
2018-09-27T06:44:05.427Z,18.07
2018-09-27T06:46:33.957Z,17.95
2018-09-27T06:49:02.673Z,19.11
2018-09-27T06:51:31.495Z,19.54
2018-09-27T06:54:00.134Z,20.04
2018-09-27T06:56:28.846Z,20.49
2018-09-27T06:58:57.533Z,21.00
2018-09-27T07:01:26.252Z,21.51
2018-09-27T07:03:55.086Z,22.05
2018-09-27T07:06:23.810Z,22.57
2018-09-27T07:08:52.384Z,23.11
2018-09-27T07:11:20.951Z,23.54
2018-09-27T07:13:49.542Z,23.95
2018-09-27T07:16:18.120Z,24.43
2018-09-27T07:18:46.845Z,24.73
2018-09-27T07:21:15.480Z,25.06
2018-09-27T07:23:44.122Z,25.38
2018-09-27T07:26:12.955Z,25.70
2018-09-27T07:28:41.790Z,26.02
2018-09-27T07:31:10.449Z,26.33
2018-09-27T07:33:38.943Z,26.65
2018-09-27T07:36:07.527Z,26.97
2018-09-27T07:38:36.181Z,27.29
2018-09-27T07:41:04.713Z,27.57
2018-09-27T07:43:33.245Z,27.78
2018-09-27T07:46:01.840Z,28.03
2018-09-27T07:48:30.500Z,28.39
2018-09-27T07:50:59.281Z,28.82
2018-09-27T07:53:28.462Z,29.23
2018-09-27T07:55:57.103Z,29.73
2018-09-27T07:58:25.742Z,30.19
2018-09-27T08:00:55.528Z,30.72
2018-09-27T08:03:24.261Z,31.16
2018-09-27T08:05:53.077Z,31.67
2018-09-27T08:08:21.748Z,32.20
2018-09-27T08:10:50.486Z,32.65
2018-09-27T08:13:19.112Z,33.07
2018-09-27T08:15:47.811Z,33.51
2018-09-27T08:18:16.439Z,34.03
2018-09-27T08:20:45.337Z,34.40
2018-09-27T08:23:13.732Z,34.79
2018-09-27T08:25:42.732Z,35.15
2018-09-27T08:28:11.452Z,35.57
2018-09-27T08:30:41.058Z,35.95
2018-09-27T08:33:10.241Z,36.35
2018-09-27T08:35:38.994Z,36.77
2018-09-27T08:38:07.684Z,37.22
2018-09-27T08:40:36.355Z,37.61
2018-09-27T08:43:04.989Z,38.02
2018-09-27T08:45:33.648Z,38.42
2018-09-27T08:48:02.072Z,38.84
2018-09-27T08:50:30.648Z,39.19
2018-09-27T08:52:59.464Z,39.57
2018-09-27T08:55:28.171Z,39.95
2018-09-27T08:57:56.787Z,40.32
2018-09-27T09:00:25.576Z,40.74
2018-09-27T09:02:54.153Z,41.12
2018-09-27T09:05:22.696Z,41.59
2018-09-27T09:07:51.505Z,42.03
2018-09-27T09:10:20.226Z,42.53
2018-09-27T09:12:48.783Z,43.04
2018-09-27T09:15:17.401Z,43.47
2018-09-27T09:17:46.098Z,43.92
2018-09-27T09:20:14.764Z,44.38
2018-09-27T09:22:43.469Z,44.83
2018-09-27T09:25:12.172Z,45.20
2018-09-27T09:27:40.787Z,45.60
2018-09-27T09:30:10.456Z,45.99
2018-09-27T09:32:39.128Z,46.39
2018-09-27T09:35:07.709Z,46.57
2018-09-27T09:37:36.326Z,46.44
2018-09-27T09:40:04.928Z,46.53
2018-09-27T09:42:33.581Z,46.72
2018-09-27T09:45:02.134Z,47.12
2018-09-27T09:47:30.692Z,47.50
2018-09-27T09:49:59.232Z,47.85
2018-09-27T09:52:27.863Z,47.94
2018-09-27T09:54:56.432Z,47.88
2018-09-27T09:57:25.143Z,47.89
2018-09-27T09:59:53.721Z,48.17
2018-09-27T10:02:22.435Z,47.75
2018-09-27T10:04:51.120Z,48.64
2018-09-27T10:07:19.703Z,49.03
2018-09-27T10:09:48.333Z,49.42
2018-09-27T10:12:16.964Z,49.89
2018-09-27T10:14:45.532Z,50.08
2018-09-27T10:17:14.156Z,50.22
2018-09-27T10:19:42.732Z,50.01
2018-09-27T10:22:11.509Z,50.07
2018-09-27T10:24:40.094Z,50.36
2018-09-27T10:27:08.786Z,50.35
2018-09-27T10:29:37.375Z,50.29
2018-09-27T10:32:06.055Z,50.25
2018-09-27T10:34:34.745Z,50.29
2018-09-27T10:37:03.516Z,50.68
2018-09-27T10:39:32.135Z,50.78
2018-09-27T10:42:00.661Z,51.15
2018-09-27T10:44:29.286Z,51.33
2018-09-27T10:46:57.910Z,51.01
2018-09-27T10:49:26.438Z,51.01
2018-09-27T10:51:55.108Z,51.64
2018-09-27T10:54:23.829Z,52.41
2018-09-27T10:56:52.566Z,52.69
2018-09-27T10:59:21.128Z,53.05
2018-09-27T11:01:50.231Z,53.46
2018-09-27T11:04:18.836Z,53.93
2018-09-27T11:06:47.386Z,54.13
2018-09-27T11:09:16.133Z,54.29
2018-09-27T11:11:44.939Z,54.59
2018-09-27T11:14:13.513Z,53.94
2018-09-27T11:16:42.292Z,53.39
2018-09-27T11:19:10.809Z,53.55
2018-09-27T11:21:39.445Z,53.79
2018-09-27T11:24:07.979Z,54.13
2018-09-27T11:26:36.557Z,54.03
2018-09-27T11:29:10.606Z,54.35
2018-09-27T11:31:44.319Z,54.72
2018-09-27T11:34:12.883Z,55.27
2018-09-27T11:36:41.574Z,56.02
2018-09-27T11:39:11.027Z,56.58
2018-09-27T11:41:39.606Z,56.94
2018-09-27T11:44:08.469Z,57.48
2018-09-27T11:46:36.925Z,57.82
2018-09-27T11:49:05.664Z,57.96
2018-09-27T11:51:34.122Z,57.30
2018-09-27T11:54:03.013Z,56.40
2018-09-27T11:56:31.611Z,55.80
2018-09-27T11:59:00.244Z,55.02
2018-09-27T12:01:28.866Z,53.83
2018-09-27T12:03:57.764Z,52.48
2018-09-27T12:06:26.298Z,50.66
2018-09-27T12:08:57.011Z,48.59
2018-09-27T12:11:25.644Z,46.28
2018-09-27T12:13:54.247Z,44.04
2018-09-27T12:16:22.944Z,42.13
2018-09-27T12:18:52.756Z,40.45
2018-09-27T12:21:21.371Z,39.31
2018-09-27T12:23:50.028Z,38.30
2018-09-27T12:26:18.670Z,37.21
2018-09-27T12:28:48.167Z,36.07
2018-09-27T12:31:16.922Z,35.31
2018-09-27T12:33:45.609Z,34.67
2018-09-27T12:36:14.090Z,34.24
2018-09-27T12:38:42.802Z,33.80
2018-09-27T12:41:11.333Z,33.50
2018-09-27T12:43:40.014Z,33.23
2018-09-27T12:46:09.192Z,32.89
2018-09-27T12:48:37.831Z,32.63
2018-09-27T12:51:06.601Z,32.44
2018-09-27T12:53:35.140Z,32.32
2018-09-27T12:56:04.229Z,32.16
2018-09-27T12:58:32.885Z,31.98
2018-09-27T13:01:01.781Z,31.85
2018-09-27T13:03:32.429Z,31.66
2018-09-27T13:06:01.144Z,31.55
2018-09-27T13:08:29.913Z,31.50
2018-09-27T13:10:58.547Z,31.33
2018-09-27T13:13:27.159Z,31.11
2018-09-27T13:15:55.908Z,30.98
2018-09-27T13:18:25.644Z,30.82
2018-09-27T13:20:54.167Z,30.71
2018-09-27T13:23:22.753Z,30.65
2018-09-27T13:25:51.422Z,30.54
2018-09-27T13:28:20.035Z,30.31
2018-09-27T13:30:48.639Z,30.18
2018-09-27T13:33:17.374Z,30.14
2018-09-27T13:35:46.022Z,30.16
2018-09-27T13:38:14.515Z,30.16
2018-09-27T13:40:43.028Z,30.16
2018-09-27T13:43:11.736Z,30.17
2018-09-27T13:45:40.232Z,30.06
2018-09-27T13:48:08.841Z,30.04
2018-09-27T13:50:37.539Z,29.86
2018-09-27T13:53:06.261Z,29.70
2018-09-27T13:55:34.874Z,29.66
2018-09-27T13:58:03.468Z,29.63
2018-09-27T14:00:32.053Z,29.62
2018-09-27T14:03:00.675Z,29.59
2018-09-27T14:05:29.349Z,29.56
2018-09-27T14:07:57.907Z,29.53
2018-09-27T14:10:26.521Z,29.55
2018-09-27T14:12:55.104Z,29.57
2018-09-27T14:15:23.777Z,29.55
2018-09-27T14:17:52.337Z,29.56
2018-09-27T14:20:20.971Z,29.55
2018-09-27T14:22:49.513Z,29.57
2018-09-27T14:25:18.007Z,29.51
2018-09-27T14:27:46.561Z,29.47
2018-09-27T14:30:15.125Z,29.44
2018-09-27T14:32:43.665Z,29.39
2018-09-27T14:35:12.279Z,29.32
2018-09-27T14:37:40.799Z,29.31
2018-09-27T14:40:09.384Z,29.28
2018-09-27T14:42:37.958Z,29.25
2018-09-27T14:45:06.684Z,29.21
2018-09-27T14:47:35.368Z,29.16
2018-09-27T14:50:03.927Z,29.12
2018-09-27T14:52:32.586Z,29.11
2018-09-27T14:55:01.141Z,29.04
2018-09-27T14:57:29.728Z,28.98
2018-09-27T14:59:58.443Z,28.93
2018-09-27T15:02:27.010Z,28.87
2018-09-27T15:04:55.576Z,28.81
2018-09-27T15:07:24.165Z,28.78
2018-09-27T15:09:52.774Z,28.75
2018-09-27T15:12:21.239Z,28.76
2018-09-27T15:14:49.825Z,28.71
2018-09-27T15:17:18.402Z,28.69
2018-09-27T15:19:47.044Z,28.65
2018-09-27T15:22:16.160Z,28.61
2018-09-27T15:24:44.843Z,28.55
2018-09-27T15:27:13.485Z,28.50
2018-09-27T15:29:42.176Z,28.46
2018-09-27T15:32:10.939Z,28.43
2018-09-27T15:34:39.778Z,28.34
2018-09-27T15:37:08.436Z,28.29
2018-09-27T15:39:37.250Z,28.25
2018-09-27T15:42:05.833Z,28.18
2018-09-27T15:44:34.652Z,28.13
2018-09-27T15:47:03.479Z,28.07
2018-09-27T15:49:32.269Z,28.00
2018-09-27T15:52:00.950Z,27.92
2018-09-27T15:54:29.776Z,27.85
2018-09-27T15:56:58.395Z,27.75
2018-09-27T15:59:27.075Z,27.69
2018-09-27T16:01:55.745Z,27.62
2018-09-27T16:04:24.415Z,27.54
2018-09-27T16:06:53.147Z,25.79
2018-09-27T16:09:22.156Z,27.40
2018-09-27T16:11:52.107Z,27.33
2018-09-27T16:14:20.768Z,27.24
2018-09-27T16:16:49.748Z,27.17
2018-09-27T16:19:18.550Z,27.09
2018-09-27T16:21:49.263Z,27.01
2018-09-27T16:27:13.580Z,26.80
2018-09-27T16:29:42.943Z,26.72
2018-09-27T16:32:11.700Z,26.63
2018-09-27T16:34:40.499Z,26.54
2018-09-27T16:39:56.440Z,26.36
2018-09-27T16:42:25.597Z,24.68
2018-09-27T16:44:54.286Z,26.17
2018-09-27T16:47:23.216Z,26.10
2018-09-27T16:49:53.291Z,26.00
2018-09-27T16:52:23.029Z,25.91
2018-09-27T16:54:51.653Z,25.12
2018-09-27T16:57:20.511Z,25.72
2018-09-27T16:59:54.253Z,25.65
2018-09-27T17:02:23.487Z,25.52
2018-09-27T17:04:53.187Z,25.42
2018-09-27T17:07:22.393Z,25.28
2018-09-27T17:09:51.271Z,25.14
2018-09-27T17:12:20.198Z,24.99
2018-09-27T17:14:48.941Z,24.85
2018-09-27T17:17:17.761Z,24.69
2018-09-27T17:19:46.602Z,24.57
2018-09-27T17:22:15.395Z,24.43
2018-09-27T17:24:44.275Z,24.32
2018-09-27T17:27:12.773Z,24.19
2018-09-27T17:29:41.787Z,24.07
2018-09-27T17:32:10.571Z,23.94
2018-09-27T17:34:39.219Z,23.80
2018-09-27T17:37:08.054Z,23.67
2018-09-27T17:39:36.601Z,23.55
2018-09-27T17:42:05.231Z,23.43
2018-09-27T17:44:33.838Z,23.32
2018-09-27T17:47:02.353Z,23.23
2018-09-27T17:49:30.994Z,23.14
2018-09-27T17:51:59.516Z,23.05
2018-09-27T17:54:27.995Z,22.96
2018-09-27T17:56:56.760Z,22.85
2018-09-27T17:59:25.239Z,22.75
2018-09-27T18:01:53.832Z,22.66
2018-09-27T18:04:22.338Z,22.57
2018-09-27T18:06:51.012Z,22.48
2018-09-27T18:09:19.554Z,22.42
2018-09-27T18:11:48.047Z,22.35
2018-09-27T18:14:16.518Z,22.28
2018-09-27T18:16:45.493Z,22.19
2018-09-27T18:19:16.361Z,22.13
2018-09-27T18:21:45.365Z,21.96
2018-09-27T18:24:14.349Z,21.98
2018-09-27T18:26:43.297Z,21.89
2018-09-27T18:29:12.161Z,21.82
2018-09-27T18:31:41.156Z,21.74
2018-09-27T18:34:10.128Z,21.71
2018-09-27T18:36:39.058Z,21.64
2018-09-27T18:39:09.954Z,21.58
2018-09-27T18:41:39.060Z,21.50
2018-09-27T18:44:08.633Z,21.42
2018-09-27T18:46:37.930Z,21.37
2018-09-27T18:49:07.012Z,21.31
2018-09-27T18:51:36.429Z,21.27
2018-09-27T18:54:09.465Z,21.19
2018-09-27T18:56:38.132Z,21.09
2018-09-27T18:59:06.836Z,21.02
2018-09-27T19:01:35.525Z,20.96
2018-09-27T19:04:04.121Z,20.89
2018-09-27T19:06:32.711Z,20.81
2018-09-27T19:09:01.649Z,20.75
2018-09-27T19:11:30.493Z,20.67
2018-09-27T19:13:59.145Z,20.62
2018-09-27T19:16:27.787Z,20.57
2018-09-27T19:18:57.243Z,20.49
2018-09-27T19:21:25.920Z,20.45
2018-09-27T19:23:54.621Z,20.39
2018-09-27T19:26:23.251Z,20.34
2018-09-27T19:28:51.837Z,20.30
2018-09-27T19:31:20.804Z,20.27
2018-09-27T19:33:49.738Z,20.20
2018-09-27T19:36:18.836Z,20.16
2018-09-27T19:38:47.395Z,20.10
2018-09-27T19:41:15.940Z,20.07
2018-09-27T19:43:44.529Z,20.02
2018-09-27T19:46:13.148Z,19.97
2018-09-27T19:48:41.805Z,19.92
2018-09-27T19:51:10.436Z,19.84
2018-09-27T19:53:39.061Z,19.77
2018-09-27T19:56:08.047Z,19.69
2018-09-27T19:58:36.657Z,19.63
2018-09-27T20:01:05.111Z,19.57
2018-09-27T20:03:33.740Z,19.53
2018-09-27T20:06:02.383Z,19.48
2018-09-27T20:08:31.191Z,19.43
2018-09-27T20:10:59.680Z,19.39
2018-09-27T20:13:28.329Z,19.35
2018-09-27T20:15:58.111Z,19.29
2018-09-27T20:18:26.652Z,19.21
2018-09-27T20:20:55.219Z,19.17
2018-09-27T20:23:23.804Z,19.11
2018-09-27T20:25:52.510Z,19.09
2018-09-27T20:28:21.071Z,19.03
2018-09-27T20:30:49.590Z,18.98
2018-09-27T20:33:18.111Z,18.96
2018-09-27T20:35:46.569Z,18.92
2018-09-27T20:38:15.011Z,18.88
2018-09-27T20:40:43.449Z,18.83
2018-09-27T20:43:16.577Z,18.81
2018-09-27T20:45:45.991Z,18.77
2018-09-27T20:48:14.800Z,18.72
2018-09-27T20:50:45.272Z,18.69
2018-09-27T20:53:14.984Z,18.65
2018-09-27T20:55:44.374Z,18.62
2018-09-27T20:58:13.264Z,18.56
2018-09-27T21:00:41.753Z,18.52
2018-09-27T21:03:10.222Z,18.48
2018-09-27T21:05:38.699Z,18.44
2018-09-27T21:08:07.208Z,18.38
2018-09-27T21:10:36.917Z,18.33
2018-09-27T21:13:07.381Z,18.29
2018-09-27T21:15:36.371Z,18.24
2018-09-27T21:18:04.907Z,18.20
2018-09-27T21:20:33.387Z,18.17
2018-09-27T21:23:02.438Z,18.12
2018-09-27T21:25:31.870Z,18.08
2018-09-27T21:28:00.401Z,18.04
2018-09-27T21:30:28.974Z,17.99
2018-09-27T21:32:57.644Z,17.95
2018-09-27T21:35:26.163Z,17.89
2018-09-27T21:37:54.765Z,17.87
2018-09-27T21:40:23.311Z,17.83
2018-09-27T21:42:51.892Z,17.81
2018-09-27T21:45:20.511Z,17.78
2018-09-27T21:47:49.103Z,17.76
2018-09-27T21:50:17.868Z,17.73
2018-09-27T21:52:46.483Z,17.69
2018-09-27T21:55:15.113Z,17.63
2018-09-27T21:57:43.596Z,17.59
2018-09-27T22:00:12.136Z,17.55
2018-09-27T22:02:40.791Z,17.47
2018-09-27T22:05:09.349Z,17.42
2018-09-27T22:07:37.916Z,17.41
2018-09-27T22:10:06.532Z,17.37
2018-09-27T22:12:35.055Z,17.33
2018-09-27T22:15:03.563Z,17.29
2018-09-27T22:17:32.035Z,17.24
2018-09-27T22:20:00.510Z,17.22
2018-09-27T22:22:28.983Z,17.18
2018-09-27T22:24:57.852Z,17.15
2018-09-27T22:27:26.299Z,17.11
2018-09-27T22:29:54.757Z,17.07
2018-09-27T22:32:23.306Z,17.05
2018-09-27T22:34:52.864Z,17.01
2018-09-27T22:37:21.332Z,16.97
2018-09-27T22:39:50.332Z,16.95
2018-09-27T22:42:19.095Z,16.91
2018-09-27T22:44:47.919Z,16.87
2018-09-27T22:47:16.699Z,16.84
2018-09-27T22:49:45.409Z,16.82
2018-09-27T22:52:14.109Z,16.75
2018-09-27T22:54:42.884Z,16.70
2018-09-27T22:57:11.712Z,16.66
2018-09-27T22:59:40.598Z,16.60
2018-09-27T23:02:09.425Z,16.56
2018-09-27T23:04:38.464Z,16.53
2018-09-27T23:07:07.366Z,16.52
2018-09-27T23:09:36.359Z,16.48
2018-09-27T23:12:05.503Z,16.44
2018-09-27T23:14:34.463Z,16.42
2018-09-27T23:17:03.347Z,16.37
2018-09-27T23:19:32.230Z,16.34
2018-09-27T23:22:00.864Z,16.31
2018-09-27T23:24:29.523Z,16.27
2018-09-27T23:26:58.211Z,16.20
2018-09-27T23:29:26.900Z,16.16
2018-09-27T23:31:55.533Z,16.11
2018-09-27T23:34:24.268Z,16.08
2018-09-27T23:36:53.053Z,15.71
2018-09-27T23:39:21.779Z,16.03
2018-09-27T23:41:50.438Z,16.00
2018-09-27T23:44:19.336Z,15.97
2018-09-27T23:46:48.020Z,15.93
2018-09-27T23:49:16.726Z,15.87
2018-09-27T23:51:45.505Z,15.84
2018-09-27T23:54:14.195Z,15.81
2018-09-27T23:56:42.802Z,15.62
2018-09-27T23:59:11.442Z,15.76
